首页
METAR-TAF:

METAR-TAF

机场 :

鲍里斯波尔国际机场

鮑里斯皮爾, 乌克兰

纬度: 50-20N, 经度: 030-58E, 海拔: 121米

当前天气观测

该预报发布于24分钟前的19:30 UTC
风速2节,风向多变
温度 1°C
湿度 47%
气压 1011 hPa
能见度10公里或以上
1500米以下无云,无积雨云

METAR: UKBB 021930Z VRB01MPS CAVOK 01/M09 Q1011 R18L/CLRD// NOSIG

时间: 22:54 (19:54 UTC)

预报

该预报发布于2小时和52分钟前的17:02 UTC
预报有效从02日的 18点(UTC)到 03日的 18点(UTC)
风速6节,风向西转西南,有时为16节阵风
能见度10公里或以上
多云层高于1500英尺
成为
从 03日的 05点(UTC)到 03日的 07点(UTC)
风速10节,风向西南,有时为19节阵风
短暂存在
从 03日的 07点(UTC)到 03日的 15点(UTC)
风速14节,风向西南,有时为25节阵风

TAF: UKBB 021702Z 0218/0318 25003G08MPS 9999 BKN015 TX13/0312Z TNM02/0304Z BECMG 0305/0307 23005G10MPS TEMPO 0307/0315 22007G13MPS

超过4000个机场的气象观测和天气预报(METAR&TAF报告)。

可查询的气象台以黄色和红色小点在地图上表示。

将鼠标移到小点上方,可查看气象台名称。

然后点击查看天气观测和预报。

如需切换地图:点击带黑十字的绿色按钮放大地图;点击带横线的绿色按钮缩小地图;或者点击绿色箭头查看邻近地区的地图。


METAR-TAF: